Time;durP1;ratioP1;P1;durP2;ratioP2;P2;SDS_P1;SDS_P2;PMS_P1;PMS_P2;Temp;Humidity;BMP_temperature;BMP_pressure;BME280_temperature;BME280_humidity;BME280_pressure;Samples;Min_cycle;Max_cycle;Signal;HPM_P1;HPM_P2
2024/05/05 00:02:10;;;;;;;73.77;35.13;;;11.10;99.90;;;;;;5416811;26;20447;-75
2024/05/05 00:04:36;;;;;;;73.23;34.93;;;11.10;99.90;;;;;;5416300;26;20217;-75
2024/05/05 00:07:02;;;;;;;89.87;34.63;;;11.10;99.90;;;;;;5417088;26;20208;-75
2024/05/05 00:09:27;;;;;;;75.70;35.10;;;11.10;99.90;;;;;;5417067;26;20757;-75
2024/05/05 00:11:53;;;;;;;75.43;33.33;;;11.10;99.90;;;;;;5416693;26;20309;-75
2024/05/05 00:14:18;;;;;;;71.23;35.27;;;11.10;99.90;;;;;;5416626;26;20212;-75
2024/05/05 00:16:44;;;;;;;59.23;31.60;;;11.20;99.90;;;;;;5416392;26;20768;-75
2024/05/05 00:19:10;;;;;;;78.37;30.60;;;11.20;99.90;;;;;;5415997;26;20274;-75
2024/05/05 00:21:35;;;;;;;56.93;27.97;;;11.20;99.90;;;;;;5416195;26;20225;-75
2024/05/05 00:24:01;;;;;;;61.37;29.23;;;11.20;99.90;;;;;;5416392;26;20208;-75
2024/05/05 00:26:27;;;;;;;54.00;28.00;;;11.20;99.90;;;;;;5415016;26;20238;-75
2024/05/05 00:28:52;;;;;;;48.67;26.80;;;11.20;99.90;;;;;;5416379;26;20242;-75
2024/05/05 00:31:18;;;;;;;48.57;25.37;;;11.30;99.90;;;;;;5416829;26;20306;-75
2024/05/05 00:33:43;;;;;;;49.03;25.90;;;11.30;99.90;;;;;;5414316;26;20263;-75
2024/05/05 00:36:09;;;;;;;44.53;24.57;;;11.40;99.90;;;;;;5416519;26;20224;-75
2024/05/05 00:38:34;;;;;;;53.70;24.70;;;11.40;99.90;;;;;;5416478;26;20270;-75
2024/05/05 00:41:00;;;;;;;41.20;23.97;;;11.40;99.90;;;;;;5416344;26;20224;-74
2024/05/05 00:43:26;;;;;;;37.13;22.63;;;11.40;99.90;;;;;;5416275;26;20212;-75
2024/05/05 00:45:51;;;;;;;41.53;23.43;;;11.40;99.90;;;;;;5416212;26;20224;-75
2024/05/05 00:48:17;;;;;;;33.33;21.43;;;11.30;99.90;;;;;;5415682;26;20270;-75
2024/05/05 00:50:44;;;;;;;35.33;21.27;;;11.30;99.90;;;;;;5415961;26;20212;-75
2024/05/05 00:53:11;;;;;;;33.37;21.13;;;11.20;99.90;;;;;;5415829;26;20254;-75
2024/05/05 00:55:39;;;;;;;31.83;20.33;;;11.10;99.90;;;;;;5416579;26;20476;-75
2024/05/05 00:58:04;;;;;;;28.10;18.83;;;11.10;99.90;;;;;;5415826;26;20212;-75
2024/05/05 01:00:30;;;;;;;30.27;20.03;;;11.10;99.90;;;;;;5415892;26;20264;-74
2024/05/05 01:02:56;;;;;;;26.47;18.20;;;11.00;99.90;;;;;;5414897;26;20217;-75
2024/05/05 01:05:22;;;;;;;27.90;18.57;;;11.00;99.90;;;;;;5415984;26;20205;-75
2024/05/05 01:07:49;;;;;;;27.30;17.17;;;11.00;99.90;;;;;;5416407;26;20209;-75
2024/05/05 01:10:18;;;;;;;28.80;17.50;;;10.90;99.90;;;;;;5415796;26;20212;-75
2024/05/05 01:12:44;;;;;;;24.70;17.93;;;10.90;99.90;;;;;;5413767;26;20219;-75
2024/05/05 01:15:10;;;;;;;25.07;17.37;;;10.80;99.90;;;;;;5415500;26;20224;-75
2024/05/05 01:17:35;;;;;;;28.10;18.33;;;10.80;99.90;;;;;;5417124;26;20271;-75
2024/05/05 01:20:01;;;;;;;22.50;17.00;;;10.80;99.90;;;;;;5415731;26;20300;-75
2024/05/05 01:22:26;;;;;;;24.23;16.60;;;10.80;99.90;;;;;;5416112;26;20212;-75
2024/05/05 01:24:52;;;;;;;25.80;16.63;;;10.70;99.90;;;;;;5413892;26;20342;-75
2024/05/05 01:27:18;;;;;;;25.93;17.33;;;10.70;99.90;;;;;;5416126;26;20536;-75
2024/05/05 01:29:43;;;;;;;19.33;16.00;;;10.70;99.90;;;;;;5415859;26;20263;-75
2024/05/05 01:32:09;;;;;;;23.00;17.00;;;10.70;99.90;;;;;;5414937;26;20725;-75
2024/05/05 01:34:34;;;;;;;23.67;16.77;;;10.70;99.90;;;;;;5416025;26;20256;-75
2024/05/05 01:37:00;;;;;;;22.33;17.10;;;10.70;99.90;;;;;;5415783;26;20650;-75
2024/05/05 01:39:25;;;;;;;26.07;16.43;;;10.60;99.90;;;;;;5415698;26;20321;-75
2024/05/05 01:41:51;;;;;;;23.83;17.77;;;10.60;99.90;;;;;;5415919;26;20544;-75
2024/05/05 01:44:17;;;;;;;23.17;18.10;;;10.60;99.90;;;;;;5415339;26;20209;-75
2024/05/05 01:46:42;;;;;;;25.83;17.47;;;10.60;99.90;;;;;;5415423;26;20247;-74
2024/05/05 01:49:08;;;;;;;24.83;18.57;;;10.60;99.90;;;;;;5485250;20;20303;-76
2024/05/05 01:51:33;;;;;;;24.43;16.83;;;10.60;99.90;;;;;;5524392;26;20311;-76
2024/05/05 01:53:59;;;;;;;20.07;14.00;;;10.60;99.90;;;;;;5523620;26;20328;-76
2024/05/05 01:56:24;;;;;;;21.57;15.77;;;10.50;99.90;;;;;;5523818;26;20209;-76
2024/05/05 01:58:50;;;;;;;18.17;14.40;;;10.50;99.90;;;;;;5511535;26;20322;-76
2024/05/05 02:01:18;;;;;;;22.50;14.97;;;10.50;99.90;;;;;;5487053;26;20901;-76
2024/05/05 02:03:44;;;;;;;24.50;14.83;;;10.50;99.90;;;;;;5485026;26;20565;-76
2024/05/05 02:06:09;;;;;;;21.47;14.20;;;10.50;99.90;;;;;;5487344;26;20256;-77
2024/05/05 02:08:35;;;;;;;23.60;15.73;;;10.40;99.90;;;;;;5491539;26;20627;-77
2024/05/05 02:11:02;;;;;;;23.47;15.83;;;10.40;99.90;;;;;;5489159;26;20751;-77
2024/05/05 02:13:27;;;;;;;17.57;15.03;;;10.40;99.90;;;;;;5486920;26;20283;-76
2024/05/05 02:15:53;;;;;;;18.53;15.23;;;10.30;99.90;;;;;;5485224;26;20687;-77
2024/05/05 02:18:18;;;;;;;27.67;16.07;;;10.30;99.90;;;;;;5486859;26;20253;-76
2024/05/05 02:20:44;;;;;;;23.27;15.43;;;10.30;99.90;;;;;;5487017;26;20202;-77
2024/05/05 02:23:10;;;;;;;19.57;14.50;;;10.30;99.90;;;;;;5486773;26;20206;-77
2024/05/05 02:25:35;;;;;;;16.93;14.07;;;10.30;99.90;;;;;;5487497;26;20207;-77
2024/05/05 02:28:01;;;;;;;15.67;13.47;;;10.30;99.90;;;;;;5486402;26;20796;-76
2024/05/05 02:30:26;;;;;;;14.33;12.30;;;10.30;99.90;;;;;;5486447;26;20214;-76
2024/05/05 02:32:52;;;;;;;16.80;12.63;;;10.30;99.90;;;;;;5486520;26;20217;-76
2024/05/05 02:35:17;;;;;;;14.63;11.63;;;10.40;99.90;;;;;;5486576;26;20554;-76
2024/05/05 02:37:43;;;;;;;14.83;11.73;;;10.50;99.90;;;;;;5487386;26;20206;-76
2024/05/05 02:40:09;;;;;;;14.00;11.43;;;10.50;99.90;;;;;;5487395;26;20264;-76
2024/05/05 02:42:35;;;;;;;14.57;12.83;;;10.60;99.90;;;;;;5487022;26;20344;-76
2024/05/05 02:45:01;;;;;;;19.37;13.13;;;10.70;99.90;;;;;;5486882;26;20222;-76
2024/05/05 02:47:26;;;;;;;14.73;13.20;;;10.70;99.90;;;;;;5487600;26;20615;-76
2024/05/05 02:49:52;;;;;;;15.33;13.50;;;10.70;99.90;;;;;;5486969;26;20226;-76
2024/05/05 02:52:17;;;;;;;16.23;13.93;;;10.80;99.90;;;;;;5487228;26;20623;-75
2024/05/05 02:54:43;;;;;;;20.80;15.50;;;10.80;99.90;;;;;;5486879;26;20325;-76
2024/05/05 02:57:09;;;;;;;20.97;16.30;;;10.80;99.90;;;;;;5486823;26;20217;-76
2024/05/05 02:59:34;;;;;;;18.73;15.60;;;10.80;99.90;;;;;;5486931;26;20238;-76
2024/05/05 03:02:00;;;;;;;17.40;15.50;;;10.80;99.90;;;;;;5486950;26;20206;-76
2024/05/05 03:04:25;;;;;;;23.53;16.80;;;10.80;99.90;;;;;;5486967;26;20787;-76
2024/05/05 03:06:52;;;;;;;26.17;18.27;;;10.80;99.90;;;;;;5486852;26;20315;-76
2024/05/05 03:09:18;;;;;;;24.47;17.93;;;10.70;99.90;;;;;;5486814;26;20219;-76
2024/05/05 03:11:43;;;;;;;22.20;17.67;;;10.60;99.90;;;;;;5486692;26;20256;-76
2024/05/05 03:14:09;;;;;;;22.10;17.00;;;10.60;99.90;;;;;;5486235;26;20603;-76
2024/05/05 03:16:35;;;;;;;28.17;20.27;;;10.70;99.90;;;;;;5486293;26;20268;-76
2024/05/05 03:19:03;;;;;;;27.27;21.27;;;10.70;99.90;;;;;;5486504;26;20217;-76
2024/05/05 03:21:31;;;;;;;33.27;21.87;;;10.60;99.90;;;;;;5486455;26;20318;-76
2024/05/05 03:23:57;;;;;;;26.30;21.60;;;10.50;99.90;;;;;;5486156;26;20266;-77
2024/05/05 03:26:22;;;;;;;28.30;22.03;;;10.50;99.90;;;;;;5487591;26;20206;-76
2024/05/05 03:28:48;;;;;;;26.90;20.73;;;10.50;99.90;;;;;;5490011;26;20217;-76
2024/05/05 03:31:17;;;;;;;30.07;20.07;;;10.40;99.90;;;;;;5489775;26;20272;-75
2024/05/05 03:33:43;;;;;;;28.13;19.43;;;10.40;99.90;;;;;;5490175;26;20210;-76
2024/05/05 03:36:09;;;;;;;27.67;20.17;;;10.30;99.90;;;;;;5490298;26;20202;-75
2024/05/05 03:38:35;;;;;;;27.10;19.90;;;10.20;99.90;;;;;;5489719;26;20218;-76
2024/05/05 03:41:03;;;;;;;25.70;18.10;;;10.10;99.90;;;;;;5489694;26;20206;-75
2024/05/05 03:43:30;;;;;;;28.53;20.50;;;10.00;99.90;;;;;;5489550;26;20266;-75
2024/05/05 03:45:55;;;;;;;30.50;19.97;;;9.90;99.90;;;;;;5489015;26;20774;-74
2024/05/05 03:48:21;;;;;;;32.03;21.57;;;9.80;99.90;;;;;;5487977;26;20210;-76
2024/05/05 03:50:46;;;;;;;34.57;21.63;;;9.80;99.90;;;;;;5488932;26;20257;-76
2024/05/05 03:53:12;;;;;;;32.00;22.20;;;9.70;99.90;;;;;;5489257;26;20621;-76
2024/05/05 03:55:38;;;;;;;34.63;21.13;;;9.70;99.90;;;;;;5490182;26;20222;-76
2024/05/05 03:58:03;;;;;;;30.90;22.53;;;9.60;99.90;;;;;;5489624;26;20563;-76
2024/05/05 04:00:29;;;;;;;34.30;23.43;;;9.60;99.90;;;;;;5489604;26;20218;-76
2024/05/05 04:02:54;;;;;;;30.67;21.77;;;9.60;99.90;;;;;;5489682;26;20253;-76
2024/05/05 04:05:20;;;;;;;37.13;23.17;;;9.60;99.90;;;;;;5489577;26;20206;-76
2024/05/05 04:07:46;;;;;;;28.30;22.10;;;9.60;99.90;;;;;;5489741;26;20616;-76
2024/05/05 04:10:11;;;;;;;29.77;21.43;;;9.50;99.90;;;;;;5489584;26;21052;-76
2024/05/05 04:12:37;;;;;;;32.87;22.20;;;9.50;99.90;;;;;;5489217;26;20222;-76
2024/05/05 04:15:03;;;;;;;34.07;22.87;;;9.50;99.90;;;;;;5488980;26;20214;-76
2024/05/05 04:17:28;;;;;;;35.10;22.57;;;9.60;99.90;;;;;;5489411;26;20318;-76
2024/05/05 04:19:54;;;;;;;37.70;23.33;;;9.60;99.90;;;;;;5489260;26;20218;-76
2024/05/05 04:22:19;;;;;;;36.50;24.03;;;9.70;99.90;;;;;;5489434;26;20221;-76
2024/05/05 04:24:45;;;;;;;37.27;22.93;;;9.70;99.90;;;;;;5489088;26;20211;-76
2024/05/05 04:27:10;;;;;;;36.40;22.70;;;9.60;99.90;;;;;;5489128;26;20652;-76
2024/05/05 04:29:36;;;;;;;43.07;23.57;;;9.60;99.90;;;;;;5489019;26;20272;-76
2024/05/05 04:32:02;;;;;;;45.77;24.10;;;9.70;99.90;;;;;;5489069;26;20764;-75
2024/05/05 04:34:27;;;;;;;44.60;23.90;;;9.70;99.90;;;;;;5488848;26;20209;-76
2024/05/05 04:36:53;;;;;;;45.67;24.53;;;9.80;99.90;;;;;;5488753;26;20210;-76
2024/05/05 04:39:18;;;;;;;43.00;22.53;;;9.80;99.90;;;;;;5487036;26;20318;-77
2024/05/05 04:41:44;;;;;;;37.33;21.93;;;9.80;99.90;;;;;;5488383;26;20209;-76
2024/05/05 04:44:09;;;;;;;37.30;19.77;;;9.80;99.90;;;;;;5487749;26;20304;-76
2024/05/05 04:46:35;;;;;;;27.77;17.67;;;9.80;99.90;;;;;;5488594;26;20241;-76
2024/05/05 04:49:00;;;;;;;29.37;16.57;;;9.80;99.90;;;;;;5488023;26;20660;-76
2024/05/05 04:51:26;;;;;;;24.93;15.33;;;9.80;99.90;;;;;;5488030;26;20285;-77
2024/05/05 04:53:52;;;;;;;24.17;15.97;;;9.80;99.90;;;;;;5488005;26;20206;-76
2024/05/05 04:56:17;;;;;;;25.73;16.30;;;9.80;99.90;;;;;;5488004;26;20214;-76
2024/05/05 04:58:43;;;;;;;27.80;15.93;;;9.80;99.90;;;;;;5486000;26;20233;-76
2024/05/05 05:01:08;;;;;;;23.03;15.23;;;9.90;99.90;;;;;;5487362;26;20206;-76
2024/05/05 05:03:34;;;;;;;27.00;15.63;;;10.00;99.90;;;;;;5485970;26;20226;-76
2024/05/05 05:06:00;;;;;;;24.80;16.07;;;10.00;99.90;;;;;;5488194;26;20211;-76
2024/05/05 05:08:25;;;;;;;22.50;15.63;;;10.00;99.90;;;;;;5486033;26;20326;-76
2024/05/05 05:10:51;;;;;;;28.77;15.17;;;10.00;99.90;;;;;;5486301;26;20548;-75
2024/05/05 05:13:19;;;;;;;23.10;15.10;;;10.00;99.90;;;;;;5487533;26;20218;-76
2024/05/05 05:15:44;;;;;;;21.00;15.50;;;10.00;99.90;;;;;;5488079;26;20705;-76
2024/05/05 05:18:10;;;;;;;25.83;15.87;;;10.10;99.90;;;;;;5487795;26;20206;-76
2024/05/05 05:20:35;;;;;;;23.23;15.47;;;10.20;99.90;;;;;;5487647;26;20235;-76
2024/05/05 05:23:04;;;;;;;26.77;16.97;;;10.40;99.90;;;;;;5487259;26;20256;-76
2024/05/05 05:25:29;;;;;;;23.50;15.77;;;10.40;99.90;;;;;;5487832;26;20261;-76
2024/05/05 05:27:55;;;;;;;24.13;16.17;;;10.30;99.90;;;;;;5488023;26;20226;-76
2024/05/05 05:30:20;;;;;;;25.63;16.37;;;10.30;99.90;;;;;;5487072;26;20779;-76
2024/05/05 05:32:46;;;;;;;25.30;18.10;;;10.40;99.90;;;;;;5487129;26;20252;-76
2024/05/05 05:35:12;;;;;;;27.67;16.70;;;10.50;99.90;;;;;;5487628;26;20218;-76
2024/05/05 05:37:37;;;;;;;23.63;16.90;;;10.60;99.90;;;;;;5487585;26;20261;-76
2024/05/05 05:40:03;;;;;;;23.57;16.47;;;10.60;99.90;;;;;;5487375;26;20215;-76
2024/05/05 05:42:28;;;;;;;26.03;17.17;;;10.70;99.90;;;;;;5486885;26;20590;-76
2024/05/05 05:44:54;;;;;;;26.30;18.00;;;10.70;99.90;;;;;;5487437;26;20252;-76
2024/05/05 05:47:20;;;;;;;30.80;17.20;;;10.80;99.90;;;;;;5487168;26;20256;-76
2024/05/05 05:49:45;;;;;;;33.80;18.37;;;10.90;99.90;;;;;;5487075;26;20740;-76
2024/05/05 05:52:11;;;;;;;30.50;19.20;;;11.00;99.90;;;;;;5486923;26;20206;-76
2024/05/05 05:54:38;;;;;;;33.73;18.30;;;11.10;99.90;;;;;;5486954;26;20256;-76
2024/05/05 05:57:03;;;;;;;21.57;14.13;;;11.20;99.90;;;;;;5486419;26;20214;-76
2024/05/05 05:59:29;;;;;;;21.10;14.63;;;11.20;99.90;;;;;;5487564;26;20264;-76
2024/05/05 06:01:55;;;;;;;18.43;12.53;;;11.20;99.90;;;;;;5486553;26;20214;-76
2024/05/05 06:04:20;;;;;;;16.90;12.20;;;11.10;99.90;;;;;;5486702;26;20226;-76
2024/05/05 06:06:46;;;;;;;18.40;12.50;;;11.10;99.90;;;;;;5487573;26;20333;-77
2024/05/05 06:09:11;;;;;;;13.07;10.70;;;11.10;99.90;;;;;;5487055;26;20245;-77
2024/05/05 06:11:37;;;;;;;14.03;10.50;;;11.10;99.90;;;;;;5486778;26;20222;-76
2024/05/05 06:14:03;;;;;;;11.83;9.50;;;11.10;99.90;;;;;;5486757;26;20261;-76
2024/05/05 06:16:28;;;;;;;12.90;8.97;;;11.10;99.90;;;;;;5486969;26;20214;-76
2024/05/05 06:18:54;;;;;;;11.43;8.10;;;11.30;99.90;;;;;;5483891;26;20222;-76
2024/05/05 06:21:19;;;;;;;11.23;8.10;;;11.40;99.90;;;;;;5486124;26;20218;-76
2024/05/05 06:23:46;;;;;;;10.80;8.43;;;11.50;99.90;;;;;;5486406;26;20248;-76
2024/05/05 06:26:12;;;;;;;12.97;8.30;;;11.70;99.90;;;;;;5486276;26;20254;-77
2024/05/05 06:28:37;;;;;;;14.20;9.13;;;11.90;99.90;;;;;;5486670;26;20404;-76
2024/05/05 06:31:03;;;;;;;13.30;9.73;;;12.20;99.90;;;;;;5486675;26;20222;-77
2024/05/05 06:33:29;;;;;;;11.47;9.07;;;12.40;99.90;;;;;;5486288;26;20261;-76
2024/05/05 06:35:55;;;;;;;12.10;9.03;;;12.50;99.90;;;;;;5487767;26;20214;-77
2024/05/05 06:38:21;;;;;;;13.13;8.93;;;12.50;99.90;;;;;;5487543;26;20275;-77
2024/05/05 06:40:48;;;;;;;13.47;9.33;;;12.60;99.90;;;;;;5486989;26;20288;-77
2024/05/05 06:43:13;;;;;;;12.37;8.70;;;12.60;99.90;;;;;;5486812;26;20249;-76
2024/05/05 06:45:39;;;;;;;12.47;8.60;;;12.60;99.90;;;;;;5486930;26;20741;-76
2024/05/05 06:48:07;;;;;;;10.90;8.33;;;12.50;99.90;;;;;;5485532;26;20347;-76
2024/05/05 06:50:34;;;;;;;10.00;8.10;;;12.60;99.90;;;;;;5486536;26;20210;-76
2024/05/05 06:53:00;;;;;;;12.27;9.80;;;12.70;99.90;;;;;;5486405;26;20766;-77
2024/05/05 06:55:26;;;;;;;14.33;9.87;;;12.70;99.90;;;;;;5486761;26;20218;-77
2024/05/05 06:57:51;;;;;;;17.43;11.07;;;12.80;99.90;;;;;;5486590;26;20206;-77
2024/05/05 07:00:17;;;;;;;13.43;8.93;;;13.00;99.90;;;;;;5486354;26;20291;-77
2024/05/05 07:02:43;;;;;;;9.63;7.33;;;13.40;99.90;;;;;;5488762;26;20654;-77
2024/05/05 07:05:09;;;;;;;7.67;6.57;;;13.80;99.90;;;;;;5489305;26;20349;-77
2024/05/05 07:07:34;;;;;;;10.77;9.10;;;14.00;99.90;;;;;;5489835;26;20697;-77
2024/05/05 07:10:00;;;;;;;8.80;7.03;;;13.90;99.90;;;;;;5488710;26;20618;-77
2024/05/05 07:12:25;;;;;;;8.83;7.67;;;14.00;99.90;;;;;;5489367;26;20302;-76
2024/05/05 07:14:51;;;;;;;9.47;7.80;;;13.90;99.90;;;;;;5489597;26;20210;-77
2024/05/05 07:17:16;;;;;;;9.93;8.63;;;13.90;99.90;;;;;;5489154;26;20626;-77
2024/05/05 07:19:42;;;;;;;10.20;7.97;;;14.00;99.90;;;;;;5489239;26;20318;-76
2024/05/05 07:22:08;;;;;;;9.23;8.13;;;14.20;99.90;;;;;;5480870;26;20763;-77
2024/05/05 07:24:34;;;;;;;9.20;6.90;;;14.70;99.90;;;;;;5488504;26;20214;-77
2024/05/05 07:26:59;;;;;;;7.07;6.20;;;14.80;99.90;;;;;;5489951;26;20252;-77
2024/05/05 07:29:25;;;;;;;7.47;6.20;;;14.70;99.90;;;;;;5489135;26;20214;-77
2024/05/05 07:31:50;;;;;;;7.63;6.67;;;14.60;99.90;;;;;;5489480;26;20202;-77
2024/05/05 07:34:16;;;;;;;7.80;6.97;;;14.40;99.90;;;;;;5491160;26;20210;-76
2024/05/05 07:36:41;;;;;;;7.50;6.63;;;14.20;99.90;;;;;;5492140;26;20601;-77
2024/05/05 07:39:16;;;;;;;6.73;5.70;;;14.10;99.90;;;;;;5489433;26;20269;-76
2024/05/05 07:41:42;;;;;;;7.50;5.77;;;14.10;99.90;;;;;;5488915;26;20210;-76
2024/05/05 07:44:08;;;;;;;6.67;6.07;;;14.10;99.90;;;;;;5488957;26;20732;-77
2024/05/05 07:46:33;;;;;;;5.93;5.30;;;14.10;99.90;;;;;;5489202;26;20218;-77
2024/05/05 07:48:59;;;;;;;7.17;5.63;;;14.10;99.90;;;;;;5489737;26;20717;-78
2024/05/05 07:51:24;;;;;;;5.97;5.40;;;13.90;1.00;;;;;;5489052;26;20225;-77
2024/05/05 07:53:50;;;;;;;5.30;4.90;;;14.00;1.00;;;;;;5492687;26;20206;-77
2024/05/05 07:56:15;;;;;;;5.40;4.90;;;14.00;1.00;;;;;;5489769;26;20230;-77
2024/05/05 07:58:41;;;;;;;7.00;5.77;;;14.30;1.00;;;;;;5491235;26;20222;-77
2024/05/05 08:01:07;;;;;;;6.10;5.50;;;14.60;1.00;;;;;;5491176;26;20206;-77
2024/05/05 08:03:32;;;;;;;5.63;4.90;;;14.90;1.00;;;;;;5491167;26;20215;-77
2024/05/05 08:05:58;;;;;;;5.27;4.60;;;15.40;99.90;;;;;;5491108;26;20879;-77
2024/05/05 08:08:24;;;;;;;6.07;5.47;;;15.80;99.90;;;;;;5491414;26;20202;-76
2024/05/05 08:10:49;;;;;;;5.47;4.63;;;16.10;1.00;;;;;;5491981;26;20314;-77
2024/05/05 08:13:15;;;;;;;5.17;4.20;;;16.00;1.00;;;;;;5491035;26;20700;-77
2024/05/05 08:15:40;;;;;;;5.00;4.60;;;16.20;1.00;;;;;;5492621;26;20409;-77
2024/05/05 08:18:06;;;;;;;5.40;5.00;;;16.30;1.00;;;;;;5491602;26;20249;-77
2024/05/05 08:20:32;;;;;;;5.37;4.87;;;16.40;1.00;;;;;;5489576;26;20252;-77
2024/05/05 08:22:58;;;;;;;4.40;4.10;;;16.60;1.00;;;;;;5490091;26;20338;-77
2024/05/05 08:25:24;;;;;;;4.83;4.33;;;16.60;1.00;;;;;;5490313;26;20202;-76
2024/05/05 08:27:50;;;;;;;5.20;4.70;;;16.40;1.00;;;;;;5491587;26;20252;-77
2024/05/05 08:30:19;;;;;;;4.70;4.30;;;16.10;1.00;;;;;;5490306;26;20248;-77
2024/05/05 08:32:48;;;;;;;4.73;4.17;;;16.10;1.00;;;;;;5490201;26;20261;-77
2024/05/05 08:35:14;;;;;;;5.23;4.10;;;16.30;1.00;;;;;;5489843;26;20813;-75
2024/05/05 08:37:40;;;;;;;4.97;4.47;;;16.60;1.00;;;;;;5488068;26;20210;-75
2024/05/05 08:40:12;;;;;;;4.33;3.93;;;16.80;1.00;;;;;;5488516;26;20278;-76
2024/05/05 08:42:44;;;;;;;4.43;4.10;;;17.00;1.00;;;;;;5488594;26;20244;-75
2024/05/05 08:45:15;;;;;;;4.47;4.07;;;17.00;1.00;;;;;;5488389;26;20206;-75
2024/05/05 08:47:42;;;;;;;4.77;4.37;;;17.10;1.00;;;;;;5487836;26;20218;-76
2024/05/05 08:50:08;;;;;;;4.60;4.20;;;17.20;1.00;;;;;;5488210;26;20269;-76
2024/05/05 08:52:39;;;;;;;4.37;3.97;;;17.10;1.00;;;;;;5488105;26;20256;-77
2024/05/05 08:55:05;;;;;;;4.00;3.70;;;17.10;1.00;;;;;;5488366;26;20258;-76
2024/05/05 08:57:42;;;;;;;4.23;3.83;;;17.10;1.00;;;;;;5487808;26;20210;-77
2024/05/05 09:00:15;;;;;;;4.07;3.77;;;17.30;1.00;;;;;;5488165;26;20597;-77
2024/05/05 09:02:42;;;;;;;4.67;4.27;;;17.40;1.00;;;;;;5487596;26;20226;-76
2024/05/05 09:05:53;;;;;;;4.27;3.97;;;17.70;1.00;;;;;;5487550;26;20218;-75
2024/05/05 09:08:19;;;;;;;3.90;3.60;;;17.90;1.00;;;;;;5484019;26;20560;-76
2024/05/05 09:10:45;;;;;;;4.60;4.20;;;17.70;99.90;;;;;;5485413;26;20234;-76
2024/05/05 09:13:12;;;;;;;4.20;3.80;;;17.60;99.90;;;;;;5482966;26;20285;-76
2024/05/05 09:15:38;;;;;;;5.93;3.80;;;17.80;99.90;;;;;;5487751;26;20262;-76
2024/05/05 09:18:05;;;;;;;3.73;3.43;;;17.90;99.90;;;;;;5487708;26;20602;-75
2024/05/05 09:20:31;;;;;;;4.67;4.20;;;18.00;99.90;;;;;;5487555;26;20253;-76
2024/05/05 09:23:00;;;;;;;3.83;3.50;;;18.40;99.90;;;;;;5487410;26;20202;-76
2024/05/05 09:25:25;;;;;;;4.40;4.00;;;18.60;1.00;;;;;;5486866;26;20245;-75
2024/05/05 09:27:51;;;;;;;3.20;3.00;;;18.70;99.90;;;;;;5487415;26;20230;-76
2024/05/05 09:30:17;;;;;;;4.07;3.70;;;18.70;1.00;;;;;;5487857;26;20611;-76
2024/05/05 09:32:43;;;;;;;3.80;3.50;;;18.50;1.00;;;;;;5488338;26;20206;-76
2024/05/05 09:35:10;;;;;;;4.27;3.90;;;18.60;1.00;;;;;;5487748;26;20222;-75
2024/05/05 09:37:36;;;;;;;3.33;3.10;;;18.50;1.00;;;;;;5487195;26;20302;-76
2024/05/05 09:40:03;;;;;;;3.67;3.30;;;18.80;1.00;;;;;;5460115;26;20352;-76
2024/05/05 09:42:28;;;;;;;3.50;3.30;;;19.00;1.00;;;;;;5482077;26;20272;-75
2024/05/05 09:44:54;;;;;;;3.90;3.10;;;19.00;1.00;;;;;;5486896;26;20210;-75
2024/05/05 09:47:27;;;;;;;3.00;2.80;;;19.20;1.00;;;;;;5486895;26;20339;-76
2024/05/05 09:50:13;;;;;;;4.10;3.40;;;19.20;1.00;;;;;;5486450;26;20233;-76
2024/05/05 09:52:49;;;;;;;3.60;3.30;;;19.10;18.70;;;;;;5487292;26;20234;-76
2024/05/05 09:55:30;;;;;;;3.73;3.43;;;19.10;29.80;;;;;;5486512;26;20209;-75
2024/05/05 09:58:03;;;;;;;5.13;3.43;;;19.00;12.60;;;;;;5486797;26;20402;-75
2024/05/05 10:00:29;;;;;;;4.27;3.87;;;18.80;17.90;;;;;;5486491;26;20321;-76
2024/05/05 10:02:56;;;;;;;4.13;3.73;;;18.80;9.90;;;;;;5486255;26;20218;-77
2024/05/05 10:05:24;;;;;;;4.30;3.90;;;18.70;14.60;;;;;;5487002;26;20253;-76
2024/05/05 10:07:50;;;;;;;5.00;3.67;;;18.50;18.60;;;;;;5486955;26;20210;-75
2024/05/05 10:10:18;;;;;;;3.57;3.27;;;18.50;17.20;;;;;;5486286;26;20244;-75
2024/05/05 10:13:03;;;;;;;3.50;3.20;;;19.10;28.40;;;;;;5486555;26;20680;-76
2024/05/05 10:15:31;;;;;;;3.50;3.20;;;19.50;53.80;;;;;;5486371;26;20808;-76
2024/05/05 10:18:07;;;;;;;4.40;3.67;;;19.80;64.60;;;;;;5486808;26;20206;-75
2024/05/05 10:20:44;;;;;;;4.20;3.38;;;19.90;79.30;;;;;;5486313;26;20689;-76
2024/05/05 10:23:09;;;;;;;3.70;3.40;;;19.90;93.50;;;;;;5486303;26;20593;-76
2024/05/05 10:25:35;;;;;;;3.55;3.25;;;20.10;93.70;;;;;;5485954;26;20218;-76
2024/05/05 10:28:01;;;;;;;4.05;3.72;;;20.50;92.10;;;;;;5486704;26;20253;-76
2024/05/05 10:30:34;;;;;;;3.60;3.30;;;20.90;92.50;;;;;;5485819;26;20718;-76
2024/05/05 10:33:00;;;;;;;3.90;3.50;;;21.10;96.30;;;;;;5486225;26;20214;-76
2024/05/05 10:35:27;;;;;;;3.97;3.38;;;21.00;95.50;;;;;;5485715;26;20669;-75
2024/05/05 10:37:52;;;;;;;3.65;3.35;;;20.80;95.80;;;;;;5485599;26;20218;-75
2024/05/05 10:40:18;;;;;;;4.35;3.65;;;20.80;99.90;;;;;;5485799;26;20229;-75
2024/05/05 10:42:44;;;;;;;3.88;3.58;;;21.50;99.90;;;;;;5486185;26;20317;-76
2024/05/05 10:45:16;;;;;;;4.80;3.80;;;21.70;94.50;;;;;;5486380;26;20544;-76
2024/05/05 10:47:42;;;;;;;4.10;3.80;;;21.40;92.20;;;;;;5486307;26;20848;-76
2024/05/05 10:50:08;;;;;;;4.78;3.90;;;20.60;91.80;;;;;;5485439;26;20553;-77
2024/05/05 10:52:37;;;;;;;4.10;3.80;;;20.10;96.60;;;;;;5485788;26;20288;-76
2024/05/05 10:55:03;;;;;;;3.63;3.33;;;20.10;95.70;;;;;;5486148;26;20709;-76
2024/05/05 10:57:30;;;;;;;3.65;3.33;;;20.50;95.80;;;;;;5486047;26;20280;-76
2024/05/05 10:59:57;;;;;;;3.50;3.20;;;21.00;94.60;;;;;;5485713;26;20350;-77
2024/05/05 11:02:31;;;;;;;3.42;3.13;;;21.60;94.00;;;;;;5485576;26;20202;-76
2024/05/05 11:05:01;;;;;;;4.22;3.83;;;22.00;95.00;;;;;;5485646;26;20265;-77
2024/05/05 11:07:33;;;;;;;4.35;3.80;;;22.20;93.00;;;;;;5486156;26;20252;-76
2024/05/05 11:10:07;;;;;;;3.90;3.60;;;22.40;95.30;;;;;;5485908;26;20260;-76
2024/05/05 11:12:43;;;;;;;3.60;3.30;;;22.60;94.80;;;;;;5485703;26;20221;-76
2024/05/05 11:15:09;;;;;;;5.38;4.00;;;22.40;89.40;;;;;;5486089;26;20213;-76
2024/05/05 11:17:35;;;;;;;3.40;3.10;;;22.10;88.90;;;;;;5485444;26;20210;-76
2024/05/05 11:20:01;;;;;;;4.40;4.00;;;22.20;93.70;;;;;;5485166;26;20592;-75
2024/05/05 11:22:26;;;;;;;4.13;3.65;;;22.10;91.40;;;;;;5485447;26;20706;-75
2024/05/05 11:24:52;;;;;;;4.13;3.70;;;21.60;90.10;;;;;;5486054;26;20426;-75
2024/05/05 11:27:18;;;;;;;3.80;3.50;;;21.20;92.10;;;;;;5484052;26;20245;-76
2024/05/05 11:29:44;;;;;;;3.65;3.35;;;21.40;92.90;;;;;;5485479;26;20359;-76
2024/05/05 11:32:35;;;;;;;3.90;3.60;;;21.60;92.30;;;;;;5485827;26;20217;-76
2024/05/05 11:35:01;;;;;;;4.85;4.45;;;21.50;91.30;;;;;;5485378;26;20559;-75
2024/05/05 11:37:27;;;;;;;3.70;3.38;;;21.40;90.90;;;;;;5485951;26;20545;-75
2024/05/05 11:39:53;;;;;;;3.63;3.33;;;21.10;90.60;;;;;;5485320;26;20322;-75
2024/05/05 11:42:22;;;;;;;4.07;3.78;;;21.40;93.20;;;;;;5485311;26;20206;-75
2024/05/05 11:44:47;;;;;;;3.25;2.95;;;22.10;91.50;;;;;;5485307;26;20295;-75
2024/05/05 11:47:19;;;;;;;2.90;2.70;;;22.60;77.50;;;;;;5486098;26;20209;-75
2024/05/05 11:50:22;;;;;;;3.63;3.33;;;22.70;79.10;;;;;;5488665;26;20222;-76
2024/05/05 11:53:06;;;;;;;3.00;2.80;;;22.80;81.00;;;;;;5488831;26;20322;-76
2024/05/05 11:55:32;;;;;;;3.45;3.25;;;22.80;81.50;;;;;;5481424;26;20325;-76
2024/05/05 11:57:57;;;;;;;3.15;2.85;;;22.50;75.70;;;;;;5488387;26;20709;-75
2024/05/05 12:00:23;;;;;;;3.60;3.30;;;22.50;78.90;;;;;;5487691;26;20566;-76
2024/05/05 12:02:49;;;;;;;3.60;3.30;;;22.50;76.10;;;;;;5487129;26;20264;-77
2024/05/05 12:05:14;;;;;;;3.47;3.17;;;22.20;80.50;;;;;;5487089;26;20210;-74
2024/05/05 12:08:09;;;;;;;3.58;3.28;;;21.70;74.30;;;;;;5486606;26;20248;-75
2024/05/05 12:10:35;;;;;;;3.80;3.50;;;20.90;75.10;;;;;;5488605;26;20207;-74
2024/05/05 12:13:01;;;;;;;3.42;3.17;;;20.80;81.40;;;;;;5488909;26;20248;-76
2024/05/05 12:15:26;;;;;;;3.53;3.22;;;20.90;80.90;;;;;;5488075;26;20203;-77
2024/05/05 12:17:58;;;;;;;3.85;3.55;;;21.00;83.50;;;;;;5489975;26;20210;-77
2024/05/05 12:20:34;;;;;;;3.75;3.45;;;21.00;84.20;;;;;;5488544;26;20222;-76
2024/05/05 12:23:07;;;;;;;3.92;3.63;;;20.90;90.50;;;;;;5488535;26;20214;-76
2024/05/05 12:25:35;;;;;;;4.00;3.70;;;20.60;86.40;;;;;;5488472;26;20257;-75
2024/05/05 12:28:30;;;;;;;4.30;4.00;;;20.30;87.80;;;;;;5488610;26;20218;-76
2024/05/05 12:30:56;;;;;;;3.97;3.67;;;20.00;90.70;;;;;;5453456;26;20253;-76
2024/05/05 12:33:22;;;;;;;3.70;3.40;;;19.80;90.30;;;;;;5488007;26;20568;-76
2024/05/05 12:35:47;;;;;;;3.92;3.63;;;19.90;93.70;;;;;;5488443;26;20310;-75
2024/05/05 12:38:13;;;;;;;3.92;3.63;;;20.00;87.60;;;;;;5488306;26;20600;-76